Terminal Aerodrome Forecast
Issued by NWS

Home | Current Version | Previous Version | Text Only | Print | Product List | Glossary On
Versions: 1 2 3 4 5 6 7 8 9 10 11 12 13
000
FTUS41 KBTV 231140
TAFPBG
TAF
KPBG 231140Z 2312/2412 17006KT P6SM BKN050
     FM231700 18011KT P6SM VCSH SCT060
     FM231900 18012KT P6SM VCSH BKN035
     FM232300 23007KT P6SM BKN025
     FM240300 32004KT P6SM SCT150=

USA.gov is the U.S. government's official web portal to all federal, state and local government web resources and services.